Time;durP1;ratioP1;P1;durP2;ratioP2;P2;SDS_P1;SDS_P2;PMS_P1;PMS_P2;Temp;Humidity;BMP_temperature;BMP_pressure;BME280_temperature;BME280_humidity;BME280_pressure;Samples;Min_cycle;Max_cycle;Signal;HPM_P1;HPM_P2
2023/07/05 00:02:22;;;;;;;8.77;5.00;;;;;;;20.23;100.00;99941.41;6348622;28;20495;-73
2023/07/05 00:05:23;;;;;;;9.97;5.93;;;;;;;20.33;100.00;99948.22;6329550;28;20479;-71
2023/07/05 00:08:24;;;;;;;9.60;5.43;;;;;;;20.25;100.00;99955.31;6348991;28;20541;-72
2023/07/05 00:11:27;;;;;;;9.67;4.73;;;;;;;20.31;100.00;99955.50;6348659;28;20119;-73
2023/07/05 00:14:29;;;;;;;10.63;5.28;;;;;;;20.30;100.00;99948.56;6329759;28;20491;-70
2023/07/05 00:17:34;;;;;;;13.60;5.75;;;;;;;20.33;100.00;99950.06;6347469;28;20048;-69
2023/07/05 00:20:36;;;;;;;8.88;4.90;;;;;;;20.27;100.00;99943.56;6347071;28;20052;-70
2023/07/05 00:23:39;;;;;;;8.05;4.93;;;;;;;20.33;100.00;99942.09;6347844;28;20517;-72
2023/07/05 00:26:42;;;;;;;9.05;5.07;;;;;;;20.40;100.00;99932.50;6329975;28;20051;-69
2023/07/05 00:29:43;;;;;;;11.77;5.28;;;;;;;20.42;100.00;99943.78;6346927;28;20047;-70
2023/07/05 00:32:43;;;;;;;14.80;4.97;;;;;;;20.39;100.00;99944.13;6329695;28;20135;-72
2023/07/05 00:35:53;;;;;;;12.80;6.03;;;;;;;20.35;100.00;99945.44;6347922;28;20411;-73
2023/07/05 00:38:53;;;;;;;9.38;5.50;;;;;;;20.35;100.00;99936.66;6329812;28;20094;-70
2023/07/05 00:41:55;;;;;;;9.97;5.30;;;;;;;20.46;100.00;99928.41;6347025;28;20051;-70
2023/07/05 00:45:11;;;;;;;10.68;5.22;;;;;;;20.58;100.00;99926.28;6347479;28;20408;-72
2023/07/05 00:48:17;;;;;;;11.65;5.55;;;;;;;20.45;100.00;99913.50;6346401;28;20048;-73
2023/07/05 00:51:43;;;;;;;11.25;5.32;;;;;;;20.54;100.00;99929.25;6329507;28;20052;-72
2023/07/05 00:54:49;;;;;;;8.50;5.22;;;;;;;20.59;100.00;99923.50;6328083;28;20494;-70
2023/07/05 00:57:50;;;;;;;11.45;6.10;;;;;;;20.58;100.00;99924.50;6328310;28;20051;-70
2023/07/05 01:00:52;;;;;;;9.13;5.47;;;;;;;20.49;100.00;99920.13;6327972;28;20051;-73
2023/07/05 01:03:58;;;;;;;11.73;5.65;;;;;;;20.56;100.00;99920.31;6328869;28;20043;-70
2023/07/05 01:06:59;;;;;;;10.02;5.43;;;;;;;20.56;100.00;99915.84;6329197;28;20058;-73
2023/07/05 01:10:00;;;;;;;8.32;5.13;;;;;;;20.68;100.00;99914.56;6346211;28;20491;-70
2023/07/05 01:13:20;;;;;;;9.52;5.60;;;;;;;20.61;100.00;99918.88;6346658;28;20131;-70
2023/07/05 01:16:45;;;;;;;9.98;6.07;;;;;;;20.58;100.00;99913.88;6329388;28;20044;-72
2023/07/05 01:19:52;;;;;;;11.20;5.70;;;;;;;20.52;100.00;99915.31;6346620;28;20085;-70
2023/07/05 01:23:22;;;;;;;11.13;5.10;;;;;;;20.49;100.00;99906.88;6346352;28;20490;-72
2023/07/05 01:26:44;;;;;;;9.38;5.45;;;;;;;20.34;100.00;99901.34;6347643;28;20047;-73
2023/07/05 01:29:45;;;;;;;;;;;;;;;20.47;100.00;99900.94;6346451;28;20502;-69
2023/07/05 01:32:56;;;;;;;6.93;4.75;;;;;;;20.55;100.00;99903.59;6327766;28;19962;-70
2023/07/05 01:35:58;;;;;;;11.10;5.47;;;;;;;20.65;100.00;99914.91;6345615;28;20047;-69
2023/07/05 01:38:59;;;;;;;12.23;5.68;;;;;;;20.56;100.00;99909.72;6345874;28;20047;-69
2023/07/05 01:42:01;;;;;;;10.70;5.63;;;;;;;20.55;100.00;99916.84;6328563;28;20048;-73
2023/07/05 01:45:02;;;;;;;10.00;5.50;;;;;;;20.46;100.00;99910.66;6328085;28;20047;-69
2023/07/05 01:48:42;;;;;;;12.85;5.82;;;;;;;20.47;100.00;99911.53;6328022;28;20048;-73
2023/07/05 01:51:52;;;;;;;10.75;6.03;;;;;;;20.40;100.00;99911.31;6344546;28;20200;-73
2023/07/05 01:55:25;;;;;;;9.63;5.78;;;;;;;20.45;100.00;99921.44;6346803;28;20048;-73
2023/07/05 01:58:29;;;;;;;12.35;5.82;;;;;;;20.37;100.00;99909.00;6329121;28;20052;-69
2023/07/05 02:01:32;;;;;;;9.18;5.35;;;;;;;20.37;100.00;99921.44;6332136;28;20062;-69
2023/07/05 02:04:35;;;;;;;12.63;5.72;;;;;;;20.28;100.00;99918.75;6332321;28;20172;-70
2023/07/05 02:07:36;;;;;;;9.40;5.72;;;;;;;20.27;100.00;99921.53;6350291;28;20495;-69
2023/07/05 02:10:37;;;;;;;8.38;5.28;;;;;;;20.13;100.00;99917.66;6350524;28;20491;-73
2023/07/05 02:13:38;;;;;;;13.77;6.43;;;;;;;20.03;100.00;99915.13;6333901;28;20058;-73
2023/07/05 02:16:39;;;;;;;11.63;5.87;;;;;;;20.18;100.00;99919.84;6350494;28;20056;-69
2023/07/05 02:19:39;;;;;;;15.63;6.20;;;;;;;20.03;100.00;99930.19;6350146;28;20052;-70
2023/07/05 02:22:40;;;;;;;9.27;5.40;;;;;;;19.99;100.00;99934.16;6349988;28;20051;-69
2023/07/05 02:25:43;;;;;;;9.40;5.10;;;;;;;19.96;100.00;99930.00;6331752;28;20130;-70
2023/07/05 02:28:44;;;;;;;13.18;5.78;;;;;;;19.93;100.00;99922.38;6332031;28;20048;-70
2023/07/05 02:31:44;;;;;;;10.60;5.63;;;;;;;19.86;100.00;99927.47;6349879;28;20419;-70
2023/07/05 02:34:45;;;;;;;11.83;6.13;;;;;;;19.76;100.00;99925.91;6350339;28;20431;-73
2023/07/05 02:37:46;;;;;;;8.67;5.20;;;;;;;19.78;100.00;99922.13;6332172;28;20051;-69
2023/07/05 02:40:48;;;;;;;8.57;5.10;;;;;;;19.85;100.00;99922.31;6332509;28;20128;-70
2023/07/05 02:43:50;;;;;;;9.32;4.95;;;;;;;19.92;100.00;99918.91;6331379;28;20047;-69
2023/07/05 02:46:53;;;;;;;9.73;5.97;;;;;;;19.94;100.00;99916.09;6331453;28;20052;-70
2023/07/05 02:49:54;;;;;;;12.70;5.45;;;;;;;19.94;100.00;99913.44;6350500;28;20051;-72
2023/07/05 02:52:54;;;;;;;10.73;5.23;;;;;;;19.93;100.00;99919.72;6349825;28;20047;-69
2023/07/05 02:55:56;;;;;;;12.17;5.33;;;;;;;19.77;100.00;99923.13;6349458;28;20479;-70
2023/07/05 02:58:56;;;;;;;10.93;5.57;;;;;;;19.84;100.00;99921.50;6349439;28;20083;-73
2023/07/05 03:01:57;;;;;;;9.43;5.97;;;;;;;19.99;100.00;99923.56;6331678;28;20562;-70
2023/07/05 03:05:05;;;;;;;10.57;5.67;;;;;;;20.00;100.00;99914.66;6349051;28;20054;-70
2023/07/05 03:08:09;;;;;;;11.90;5.65;;;;;;;19.98;100.00;99916.63;6332375;28;20047;-73
2023/07/05 03:11:09;;;;;;;11.63;5.30;;;;;;;19.97;100.00;99914.94;6330721;28;20048;-73
2023/07/05 03:14:10;;;;;;;10.70;6.17;;;;;;;19.89;100.00;99918.38;6331692;28;20057;-73
2023/07/05 03:17:13;;;;;;;14.30;6.13;;;;;;;19.96;100.00;99913.28;6349414;28;20055;-69
2023/07/05 03:20:14;;;;;;;13.48;7.18;;;;;;;19.95;100.00;99911.63;6349109;28;20047;-73
2023/07/05 03:23:16;;;;;;;10.87;6.47;;;;;;;19.99;100.00;99913.78;6348926;28;20058;-72
2023/07/05 03:26:17;;;;;;;10.73;6.20;;;;;;;20.01;100.00;99916.28;6349779;28;20047;-69
2023/07/05 03:29:18;;;;;;;14.77;6.20;;;;;;;20.01;100.00;99911.00;6331149;28;20052;-70
2023/07/05 03:32:19;;;;;;;12.60;6.13;;;;;;;20.02;100.00;99902.91;6330467;28;20051;-73
2023/07/05 03:35:20;;;;;;;11.82;5.80;;;;;;;20.09;100.00;99908.38;6349305;28;20044;-70
2023/07/05 03:38:23;;;;;;;12.73;7.13;;;;;;;20.07;100.00;99905.06;6330768;28;20545;-73
2023/07/05 03:41:24;;;;;;;13.93;6.25;;;;;;;20.17;100.00;99891.69;6349332;28;20047;-70
2023/07/05 03:44:25;;;;;;;10.32;5.85;;;;;;;20.22;100.00;99890.25;6331237;28;20050;-73
2023/07/05 03:47:27;;;;;;;10.53;5.40;;;;;;;20.16;100.00;99900.63;6331807;28;20101;-73
2023/07/05 03:50:28;;;;;;;6.90;4.63;;;;;;;20.21;100.00;99906.28;6348796;28;20134;-69
2023/07/05 03:53:29;;;;;;;12.43;5.73;;;;;;;20.35;100.00;99908.31;6330582;28;20054;-73
2023/07/05 03:56:30;;;;;;;10.13;5.43;;;;;;;20.41;100.00;99907.69;6329912;28;20054;-70
2023/07/05 03:59:31;;;;;;;11.17;6.20;;;;;;;20.20;100.00;99917.84;6329598;28;20051;-70
2023/07/05 04:02:31;;;;;;;9.77;5.90;;;;;;;20.22;100.00;99907.94;6348575;28;20112;-73
2023/07/05 04:05:32;;;;;;;10.23;5.77;;;;;;;20.38;100.00;99892.09;6348837;28;20051;-72
2023/07/05 04:08:35;;;;;;;12.03;6.57;;;;;;;20.56;100.00;99893.81;6313829;28;20415;-73
2023/07/05 04:11:36;;;;;;;15.50;6.68;;;;;;;20.43;100.00;99896.94;6330338;28;20415;-73
2023/07/05 04:14:37;;;;;;;9.57;5.83;;;;;;;20.57;100.00;99896.31;6330412;28;20054;-70
2023/07/05 04:17:38;;;;;;;11.87;6.10;;;;;;;20.58;100.00;99899.78;6329156;28;20060;-70
2023/07/05 04:20:38;;;;;;;15.30;6.67;;;;;;;20.53;100.00;99903.75;6347142;28;20556;-69
2023/07/05 04:23:42;;;;;;;10.07;6.20;;;;;;;20.64;100.00;99905.28;6328509;28;20052;-70
2023/07/05 04:26:43;;;;;;;12.55;6.07;;;;;;;20.65;100.00;99903.47;6329086;28;20047;-72
2023/07/05 04:29:44;;;;;;;10.10;5.40;;;;;;;20.74;100.00;99899.84;6348046;28;20476;-69
2023/07/05 04:32:45;;;;;;;11.63;6.13;;;;;;;20.88;100.00;99901.03;6347612;28;20051;-70
2023/07/05 04:35:47;;;;;;;9.57;5.33;;;;;;;21.07;100.00;99911.31;6348138;28;20099;-70
2023/07/05 04:38:47;;;;;;;11.80;5.57;;;;;;;21.08;100.00;99914.78;6346865;28;20503;-71
2023/07/05 04:41:48;;;;;;;13.00;6.60;;;;;;;21.02;100.00;99912.78;6329096;28;20059;-72
2023/07/05 04:44:49;;;;;;;13.03;6.23;;;;;;;21.09;100.00;99911.16;6328983;28;20123;-72
2023/07/05 04:47:49;;;;;;;12.37;6.27;;;;;;;21.17;100.00;99913.81;6347307;28;20374;-70
2023/07/05 04:50:52;;;;;;;11.67;5.33;;;;;;;21.34;100.00;99912.81;6347779;28;20053;-72
2023/07/05 04:53:53;;;;;;;10.07;6.45;;;;;;;21.38;100.00;99915.13;6346792;28;20101;-72
2023/07/05 04:56:55;;;;;;;9.23;5.10;;;;;;;21.54;100.00;99901.88;6329651;28;20052;-72
2023/07/05 04:59:55;;;;;;;;;;;;;;;21.65;100.00;99903.34;6329349;28;20044;-72
2023/07/05 05:02:56;;;;;;;11.23;6.07;;;;;;;21.56;100.00;99896.38;6328549;28;19920;-72
2023/07/05 05:05:57;;;;;;;9.17;5.60;;;;;;;21.55;100.00;99906.19;6346576;28;20116;-72
2023/07/05 05:08:58;;;;;;;14.77;6.22;;;;;;;21.66;100.00;99907.66;6347096;28;20142;-72
2023/07/05 05:11:59;;;;;;;9.67;5.87;;;;;;;21.68;99.45;99906.50;6346704;28;20053;-72
2023/07/05 05:14:59;;;;;;;11.33;5.13;;;;;;;21.82;99.86;99907.59;6328627;28;20491;-72
2023/07/05 05:18:00;;;;;;;10.60;5.37;;;;;;;21.79;98.70;99907.97;6328969;28;20048;-69
2023/07/05 05:21:01;;;;;;;12.50;5.13;;;;;;;21.88;99.68;99898.13;6346525;28;20074;-72
2023/07/05 05:24:02;;;;;;;11.57;5.38;;;;;;;22.04;100.00;99906.06;6328304;28;20044;-72
2023/07/05 05:27:03;;;;;;;8.70;4.90;;;;;;;22.12;97.91;99910.53;6346137;28;20518;-69
2023/07/05 05:30:05;;;;;;;8.95;4.95;;;;;;;22.29;96.38;99909.47;6346379;28;20484;-72
2023/07/05 05:33:06;;;;;;;10.05;5.20;;;;;;;22.43;95.38;99901.78;6346063;28;20491;-72
2023/07/05 05:36:07;;;;;;;10.35;5.15;;;;;;;22.51;92.95;99910.53;6333664;28;20418;-72
2023/07/05 05:39:08;;;;;;;7.43;4.70;;;;;;;22.63;91.18;99908.31;6333119;28;20055;-71
2023/07/05 05:42:08;;;;;;;11.57;5.27;;;;;;;22.65;88.23;99902.78;6332965;28;20279;-73
2023/07/05 05:45:09;;;;;;;13.87;5.43;;;;;;;23.00;87.42;99913.88;6333675;28;20044;-73
2023/07/05 05:48:10;;;;;;;8.52;5.07;;;;;;;23.20;88.62;99914.25;6333087;28;20100;-73
2023/07/05 05:51:11;;;;;;;9.27;5.20;;;;;;;23.43;87.20;99907.06;6350697;28;20043;-71
2023/07/05 05:54:12;;;;;;;9.43;4.53;;;;;;;23.69;87.03;99901.31;6332386;28;20039;-71
2023/07/05 05:57:12;;;;;;;9.53;5.53;;;;;;;24.02;86.83;99900.97;6350643;28;20096;-71
2023/07/05 06:00:13;;;;;;;10.03;5.67;;;;;;;24.16;84.14;99901.16;6350930;28;20551;-73
2023/07/05 06:03:14;;;;;;;11.63;5.30;;;;;;;24.12;81.44;99895.38;6350559;28;20056;-70
2023/07/05 06:06:15;;;;;;;13.25;5.10;;;;;;;24.10;81.67;99898.22;6350613;28;20051;-72
2023/07/05 06:09:16;;;;;;;9.17;4.77;;;;;;;24.29;79.02;99899.47;6350579;28;20120;-72
2023/07/05 06:12:16;;;;;;;9.97;4.90;;;;;;;24.04;79.53;99906.94;6332639;28;20050;-70
2023/07/05 06:15:19;;;;;;;9.87;4.87;;;;;;;24.05;81.39;99903.28;6332276;28;20054;-70
2023/07/05 06:18:20;;;;;;;13.07;5.28;;;;;;;23.98;82.31;99909.53;6332149;28;20051;-70
2023/07/05 06:21:21;;;;;;;10.90;4.53;;;;;;;24.06;82.29;99912.09;6332004;28;20499;-70
2023/07/05 06:24:22;;;;;;;8.37;4.40;;;;;;;23.90;78.79;99915.75;6331822;28;20044;-72
2023/07/05 06:27:22;;;;;;;9.50;5.07;;;;;;;24.08;80.86;99910.06;6350246;28;20488;-72
2023/07/05 06:30:23;;;;;;;8.77;4.80;;;;;;;24.00;80.94;99911.00;6332092;28;20523;-71
2023/07/05 06:33:24;;;;;;;8.50;4.67;;;;;;;24.00;81.73;99904.84;6331838;28;20266;-71
2023/07/05 06:36:25;;;;;;;10.10;5.20;;;;;;;24.36;80.71;99904.03;6331691;28;20134;-71
2023/07/05 06:39:26;;;;;;;8.15;4.95;;;;;;;24.52;81.59;99918.03;6331719;28;20051;-71
2023/07/05 06:42:27;;;;;;;8.17;5.00;;;;;;;24.67;82.40;99910.00;6349980;28;20467;-71
2023/07/05 06:45:27;;;;;;;9.07;5.20;;;;;;;24.86;80.30;99918.41;6330970;28;20680;-72
2023/07/05 06:48:28;;;;;;;10.13;5.03;;;;;;;25.18;77.25;99914.34;6331553;28;20059;-71
2023/07/05 06:51:29;;;;;;;8.47;5.27;;;;;;;25.19;74.97;99918.69;6349771;28;20052;-72
2023/07/05 06:54:30;;;;;;;9.85;5.70;;;;;;;25.54;74.94;99916.13;6349261;28;20449;-71
2023/07/05 06:57:31;;;;;;;11.13;5.57;;;;;;;25.64;75.37;99907.78;6330964;28;20044;-71
2023/07/05 07:00:34;;;;;;;10.65;5.20;;;;;;;25.75;74.51;99909.88;6331114;28;20043;-72
2023/07/05 07:03:36;;;;;;;9.95;5.28;;;;;;;25.70;73.72;99910.50;6348941;28;20055;-72
2023/07/05 07:06:37;;;;;;;11.35;4.68;;;;;;;25.74;73.12;99908.25;6349199;28;20052;-71
2023/07/05 07:09:40;;;;;;;10.00;4.93;;;;;;;25.40;74.96;99901.03;6330717;28;20120;-71
2023/07/05 07:12:41;;;;;;;6.50;4.20;;;;;;;25.82;75.82;99915.28;6348752;28;20533;-71
2023/07/05 07:15:44;;;;;;;9.40;4.47;;;;;;;25.98;71.90;99917.66;6348785;28;20052;-73
2023/07/05 07:18:46;;;;;;;9.15;4.63;;;;;;;26.28;69.44;99912.88;6348658;28;20639;-72
2023/07/05 07:21:48;;;;;;;6.55;4.03;;;;;;;26.86;70.16;99919.66;6330521;28;20166;-72
2023/07/05 07:24:50;;;;;;;10.20;4.22;;;;;;;26.91;66.13;99915.34;6348702;28;20316;-73
2023/07/05 07:27:51;;;;;;;8.07;4.28;;;;;;;26.88;67.15;99917.59;6348479;28;20494;-72
2023/07/05 07:30:52;;;;;;;9.70;4.25;;;;;;;27.24;65.52;99913.75;6330493;28;20044;-71
2023/07/05 07:33:54;;;;;;;10.40;4.82;;;;;;;27.71;64.22;99904.63;6348382;28;20100;-72
2023/07/05 07:36:54;;;;;;;6.47;4.30;;;;;;;27.93;59.10;99904.41;6348701;28;20101;-72
2023/07/05 07:39:55;;;;;;;8.30;5.10;;;;;;;27.38;64.01;99904.66;6348866;28;20047;-72
2023/07/05 07:42:56;;;;;;;7.47;4.13;;;;;;;27.32;65.13;99914.38;6328821;28;20043;-72
2023/07/05 07:45:56;;;;;;;9.70;4.13;;;;;;;27.50;63.23;99908.38;6346988;28;20549;-71
2023/07/05 07:48:59;;;;;;;5.97;4.05;;;;;;;27.55;63.68;99910.44;6329689;28;20279;-71
2023/07/05 07:52:00;;;;;;;6.63;3.50;;;;;;;27.35;56.88;99907.78;6330314;28;20087;-72
2023/07/05 07:55:03;;;;;;;6.40;3.30;;;;;;;27.46;60.98;99909.00;6347825;28;20051;-73
2023/07/05 07:58:04;;;;;;;8.52;4.00;;;;;;;27.67;57.82;99906.06;6347447;28;20272;-72
2023/07/05 08:01:12;;;;;;;9.05;4.10;;;;;;;27.91;57.46;99901.94;6329442;28;20066;-71
2023/07/05 08:04:14;;;;;;;11.02;4.22;;;;;;;27.96;58.59;99903.16;6329147;28;20449;-72
2023/07/05 08:07:15;;;;;;;10.30;4.15;;;;;;;28.65;64.06;99907.00;6329604;28;20108;-73
2023/07/05 08:10:16;;;;;;;6.30;3.75;;;;;;;28.49;59.57;99897.56;6347889;28;20056;-72
2023/07/05 08:13:16;;;;;;;8.00;3.72;;;;;;;28.50;59.14;99901.94;6347412;28;20048;-72
2023/07/05 08:16:18;;;;;;;9.18;4.13;;;;;;;28.92;58.84;99899.59;6347393;28;20042;-73
2023/07/05 08:19:20;;;;;;;7.53;4.20;;;;;;;29.09;61.64;99900.69;6347475;28;20051;-73
2023/07/05 08:22:21;;;;;;;6.10;3.78;;;;;;;28.73;60.95;99907.56;6347196;28;20083;-72
2023/07/05 08:25:22;;;;;;;6.63;3.85;;;;;;;28.44;63.16;99913.50;6347013;28;20048;-72
2023/07/05 08:28:27;;;;;;;6.15;3.63;;;;;;;27.89;61.15;99898.63;6329010;28;20048;-71
2023/07/05 08:31:30;;;;;;;6.88;3.95;;;;;;;27.58;61.63;99904.66;6347181;28;20422;-73
2023/07/05 08:34:30;;;;;;;6.25;3.92;;;;;;;28.07;60.46;99906.00;6328839;28;20055;-72
2023/07/05 08:37:31;;;;;;;7.63;4.28;;;;;;;28.20;61.44;99907.00;6346998;28;20047;-73
2023/07/05 08:40:40;;;;;;;9.48;4.22;;;;;;;28.49;57.70;99913.66;6329109;28;20396;-72
2023/07/05 08:43:48;;;;;;;7.03;3.75;;;;;;;29.04;57.84;99916.66;6328699;28;20081;-72
2023/07/05 08:47:03;;;;;;;7.80;3.85;;;;;;;29.37;54.03;99914.78;6346570;28;20059;-71
2023/07/05 08:50:14;;;;;;;5.80;3.63;;;;;;;29.61;56.68;99913.94;6328805;28;20052;-73
2023/07/05 08:53:19;;;;;;;6.03;3.67;;;;;;;29.81;54.04;99916.44;6346505;28;20522;-71
2023/07/05 08:56:27;;;;;;;7.25;4.05;;;;;;;29.94;53.42;99915.50;6346530;28;20106;-72
2023/07/05 08:59:32;;;;;;;5.93;3.15;;;;;;;29.92;52.25;99918.41;6346386;28;20112;-71
2023/07/05 09:02:33;;;;;;;6.53;4.03;;;;;;;29.29;52.75;99926.63;6346231;28;20055;-72
2023/07/05 09:05:52;;;;;;;9.20;3.47;;;;;;;29.67;53.30;99925.66;6346169;28;20050;-71
2023/07/05 09:08:56;;;;;;;6.75;3.38;;;;;;;30.22;51.94;99912.25;6345606;28;20150;-71
2023/07/05 09:12:20;;;;;;;7.85;3.40;;;;;;;29.96;52.90;99917.94;6328027;28;20044;-71
2023/07/05 09:15:25;;;;;;;7.13;3.30;;;;;;;30.37;50.02;99911.06;6328098;28;20522;-72
2023/07/05 09:18:54;;;;;;;6.13;2.90;;;;;;;30.41;49.25;99914.94;6346140;28;20069;-73
2023/07/05 09:22:01;;;;;;;6.43;3.47;;;;;;;30.81;45.99;99907.13;6337646;28;20109;-71
2023/07/05 09:25:05;;;;;;;5.13;3.42;;;;;;;30.58;46.48;99910.56;6345759;28;20050;-72
2023/07/05 09:28:24;;;;;;;4.55;2.72;;;;;;;30.69;47.15;99907.09;6346468;28;20051;-73
2023/07/05 09:31:25;;;;;;;5.15;3.38;;;;;;;30.92;43.65;99906.34;6346025;28;20044;-72
2023/07/05 09:34:41;;;;;;;4.68;2.95;;;;;;;30.94;47.38;99914.22;6327865;28;20061;-72
2023/07/05 09:38:00;;;;;;;6.30;3.83;;;;;;;31.42;44.11;99902.44;6327840;28;20048;-73
2023/07/05 09:41:06;;;;;;;6.20;3.28;;;;;;;31.39;43.91;99904.78;6327686;28;20112;-73
2023/07/05 09:44:07;;;;;;;5.95;3.60;;;;;;;31.58;43.22;99894.72;6328099;28;20047;-73
2023/07/05 09:47:07;;;;;;;10.23;3.65;;;;;;;31.10;44.04;99897.38;6327416;28;20052;-72
2023/07/05 09:50:21;;;;;;;8.80;3.38;;;;;;;31.07;44.86;99892.47;6345407;28;20098;-72
2023/07/05 09:53:58;;;;;;;4.45;3.00;;;;;;;30.98;44.16;99888.44;6327696;28;20079;-72
2023/07/05 09:57:09;;;;;;;7.55;3.05;;;;;;;30.05;46.40;99885.13;6345844;28;20054;-72
2023/07/05 10:00:33;;;;;;;7.55;3.67;;;;;;;30.65;46.23;99887.06;6345675;28;20513;-72
2023/07/05 10:03:48;;;;;;;6.68;3.47;;;;;;;30.82;45.41;99884.50;6316734;28;20470;-71
2023/07/05 10:06:50;;;;;;;5.68;3.35;;;;;;;31.36;46.05;99881.81;6327269;28;20055;-73
2023/07/05 10:09:59;;;;;;;6.05;3.78;;;;;;;31.85;43.46;99873.44;6345616;28;20096;-75
2023/07/05 10:13:21;;;;;;;7.93;3.78;;;;;;;32.25;43.24;99878.06;6345571;28;20048;-73
2023/07/05 10:16:23;;;;;;;5.28;3.35;;;;;;;31.99;42.18;99876.72;6327480;28;20078;-72
2023/07/05 10:19:25;;;;;;;5.32;3.20;;;;;;;30.75;43.24;99873.03;6327890;28;20479;-72
2023/07/05 10:22:30;;;;;;;7.13;3.58;;;;;;;30.43;46.91;99881.34;6350446;28;20055;-72
2023/07/05 10:25:39;;;;;;;6.63;3.72;;;;;;;30.15;46.89;99879.22;6350370;28;20040;-72
2023/07/05 10:28:41;;;;;;;5.88;3.28;;;;;;;30.04;48.52;99877.28;6332137;28;20058;-72
2023/07/05 10:31:52;;;;;;;6.05;3.20;;;;;;;30.49;47.45;99872.34;6331820;28;20403;-73
2023/07/05 10:34:55;;;;;;;5.85;3.33;;;;;;;30.81;45.28;99874.00;6350001;28;20071;-72
2023/07/05 10:37:57;;;;;;;5.50;3.40;;;;;;;31.84;45.18;99866.44;6349910;28;20109;-73
2023/07/05 10:41:12;;;;;;;4.65;3.38;;;;;;;32.01;43.21;99864.63;6350094;28;20047;-73
2023/07/05 10:44:32;;;;;;;5.10;3.03;;;;;;;31.42;42.55;99863.88;6331484;28;20077;-72
2023/07/05 10:47:33;;;;;;;8.23;3.33;;;;;;;31.27;43.35;99867.03;6349803;28;20048;-71
2023/07/05 10:50:39;;;;;;;6.47;3.38;;;;;;;31.76;41.00;99859.53;6349611;28;20047;-72
2023/07/05 10:53:46;;;;;;;6.43;3.40;;;;;;;32.10;41.58;99849.72;6331586;28;20488;-71
2023/07/05 10:56:48;;;;;;;5.68;3.17;;;;;;;32.34;44.82;99841.50;6331053;28;20062;-72
2023/07/05 11:00:11;;;;;;;6.15;3.58;;;;;;;32.67;39.89;99848.06;6331796;28;20082;-73
2023/07/05 11:03:26;;;;;;;5.55;3.40;;;;;;;32.63;40.80;99836.91;6331175;28;20052;-73
2023/07/05 11:06:30;;;;;;;6.05;3.40;;;;;;;33.01;41.05;99838.09;6349093;28;20047;-72
2023/07/05 11:09:35;;;;;;;8.18;3.15;;;;;;;32.74;41.01;99832.53;6331012;28;20564;-72
2023/07/05 11:12:35;;;;;;;5.75;3.75;;;;;;;32.84;39.75;99832.66;6349122;28;20134;-72
2023/07/05 11:15:36;;;;;;;;;;;;;;;32.70;42.18;99824.09;6331335;28;20526;-72
2023/07/05 11:18:37;;;;;;;6.28;3.35;;;;;;;32.80;42.82;99830.72;6348854;28;19920;-72
2023/07/05 11:21:39;;;;;;;;;;;;;;;32.93;42.40;99825.81;6330673;28;20460;-73
2023/07/05 11:24:44;;;;;;;5.85;3.33;;;;;;;33.28;42.00;99823.91;6330469;28;19965;-71
2023/07/05 11:27:56;;;;;;;5.15;3.40;;;;;;;33.59;42.33;99818.91;6330040;28;20134;-73
2023/07/05 11:30:57;;;;;;;4.70;3.22;;;;;;;33.80;41.41;99812.69;6348141;28;20056;-73
2023/07/05 11:34:29;;;;;;;5.05;3.15;;;;;;;33.78;38.89;99819.44;6348012;28;20060;-73
2023/07/05 11:37:39;;;;;;;7.93;3.42;;;;;;;33.69;40.68;99800.13;6343112;28;20491;-72
2023/07/05 11:41:21;;;;;;;4.95;3.10;;;;;;;33.90;39.89;99802.00;6348103;28;20052;-72
2023/07/05 11:44:25;;;;;;;6.03;3.67;;;;;;;33.87;42.35;99799.81;6329981;28;20040;-73
2023/07/05 11:47:25;;;;;;;6.18;3.80;;;;;;;33.86;40.39;99794.66;6348644;28;20094;-73
2023/07/05 11:50:27;;;;;;;8.02;3.72;;;;;;;34.44;39.81;99789.56;6348233;28;20358;-72
2023/07/05 11:53:32;;;;;;;6.43;4.00;;;;;;;34.09;38.67;99785.41;6330058;28;20074;-71
2023/07/05 11:56:36;;;;;;;5.60;3.75;;;;;;;34.59;40.20;99776.13;6329027;28;20050;-73
2023/07/05 11:59:44;;;;;;;5.25;3.00;;;;;;;34.44;40.63;99781.44;6347495;28;20491;-73
2023/07/05 12:02:45;;;;;;;5.93;3.30;;;;;;;34.12;39.15;99782.22;6329467;28;20047;-72
2023/07/05 12:05:54;;;;;;;4.97;3.35;;;;;;;34.40;38.55;99769.47;6329367;28;20101;-72
2023/07/05 12:09:00;;;;;;;9.65;3.58;;;;;;;34.57;41.31;99763.91;6329342;28;20043;-72
2023/07/05 12:12:03;;;;;;;4.80;3.15;;;;;;;34.58;37.74;99763.66;6329736;28;20051;-71
2023/07/05 12:15:10;;;;;;;5.72;3.88;;;;;;;34.50;37.62;99756.03;6329534;28;20052;-74
2023/07/05 12:18:14;;;;;;;7.63;4.13;;;;;;;34.14;38.94;99752.19;6347546;28;20090;-72
2023/07/05 12:21:16;;;;;;;8.45;3.80;;;;;;;32.85;38.28;99744.34;6329285;28;20051;-72
2023/07/05 12:24:19;;;;;;;6.60;3.30;;;;;;;33.42;39.39;99743.22;6347149;28;20044;-73
2023/07/05 12:27:24;;;;;;;6.88;4.07;;;;;;;34.00;39.63;99736.34;6329241;28;20063;-73
2023/07/05 12:30:25;;;;;;;5.90;3.65;;;;;;;34.24;37.97;99750.38;6328974;28;20070;-72
2023/07/05 12:33:28;;;;;;;5.70;3.58;;;;;;;34.61;36.40;99740.66;6347301;28;20105;-74
2023/07/05 12:36:40;;;;;;;5.10;3.47;;;;;;;34.28;39.02;99737.97;6329555;28;20052;-74
2023/07/05 12:39:43;;;;;;;5.38;3.58;;;;;;;33.94;37.06;99728.44;6347558;28;20052;-72
2023/07/05 12:43:03;;;;;;;8.55;4.22;;;;;;;33.52;37.48;99729.84;6328638;28;20055;-72
2023/07/05 12:46:12;;;;;;;5.83;3.70;;;;;;;33.18;39.64;99721.88;6346736;28;20483;-73
2023/07/05 12:49:19;;;;;;;7.13;3.47;;;;;;;33.40;39.47;99723.75;6346797;28;20054;-72
2023/07/05 12:52:22;;;;;;;5.72;3.55;;;;;;;33.77;42.73;99712.28;6329347;28;20058;-74
2023/07/05 12:55:31;;;;;;;8.60;3.85;;;;;;;33.88;37.98;99717.53;6346818;28;20047;-72
2023/07/05 12:58:32;;;;;;;8.13;3.28;;;;;;;33.75;38.15;99704.44;6328582;28;20051;-72
2023/07/05 13:01:40;;;;;;;6.38;3.50;;;;;;;33.89;39.57;99708.38;6346514;28;20105;-72
2023/07/05 13:04:45;;;;;;;5.93;3.20;;;;;;;32.87;38.19;99707.91;6346863;28;20043;-72
2023/07/05 13:07:50;;;;;;;5.90;3.58;;;;;;;33.52;40.45;99703.63;6346526;28;20051;-74
2023/07/05 13:10:54;;;;;;;5.05;3.20;;;;;;;33.67;41.76;99703.00;6346657;28;20115;-74
2023/07/05 13:14:07;;;;;;;5.35;3.63;;;;;;;33.69;38.33;99705.47;6346878;28;20526;-72
2023/07/05 13:17:17;;;;;;;5.72;4.03;;;;;;;33.08;42.67;99697.41;6327960;28;20480;-72
2023/07/05 13:20:20;;;;;;;5.00;3.33;;;;;;;32.43;43.46;99694.28;6328300;28;20069;-72
2023/07/05 13:23:28;;;;;;;4.65;3.22;;;;;;;32.43;44.47;99696.16;6328610;28;20134;-73
2023/07/05 13:26:37;;;;;;;7.00;3.70;;;;;;;32.20;41.39;99686.34;6346167;28;20077;-74
2023/07/05 13:29:43;;;;;;;6.97;3.55;;;;;;;32.48;45.97;99690.84;6328048;28;20048;-72
2023/07/05 13:32:47;;;;;;;5.50;3.25;;;;;;;32.44;43.18;99692.41;6345935;28;20047;-72
2023/07/05 13:35:50;;;;;;;6.38;3.42;;;;;;;32.91;42.93;99681.22;6328068;28;20096;-74
2023/07/05 13:38:54;;;;;;;5.97;3.50;;;;;;;33.33;43.69;99688.78;6328238;28;20081;-74
2023/07/05 13:42:01;;;;;;;4.35;2.88;;;;;;;33.85;40.89;99682.06;6327952;28;20541;-72
2023/07/05 13:45:03;;;;;;;6.03;3.50;;;;;;;33.82;42.18;99685.28;6327623;28;20112;-72
2023/07/05 13:48:04;;;;;;;6.05;3.63;;;;;;;33.02;40.23;99676.75;6345662;28;20407;-72
2023/07/05 13:51:23;;;;;;;4.88;3.38;;;;;;;32.95;41.26;99676.94;6345817;28;20048;-72
2023/07/05 13:54:25;;;;;;;6.63;3.97;;;;;;;33.03;42.93;99667.56;6328447;28;20040;-73
2023/07/05 13:57:26;;;;;;;7.55;3.38;;;;;;;33.39;40.77;99663.44;6332792;28;20055;-73
2023/07/05 14:00:32;;;;;;;5.07;3.53;;;;;;;33.69;44.35;99673.00;6351013;28;20052;-72
2023/07/05 14:03:33;;;;;;;5.78;3.63;;;;;;;33.20;41.26;99668.38;6332487;28;20565;-74
2023/07/05 14:06:34;;;;;;;4.95;3.35;;;;;;;33.36;44.10;99661.28;6332950;28;20048;-74
2023/07/05 14:09:34;;;;;;;5.00;3.42;;;;;;;33.19;41.72;99665.91;6332518;28;20047;-74
2023/07/05 14:12:37;;;;;;;5.57;3.22;;;;;;;33.27;43.35;99663.56;6332432;28;20055;-74
2023/07/05 14:15:43;;;;;;;5.50;3.70;;;;;;;32.82;41.99;99666.50;6350758;28;20040;-74
2023/07/05 14:18:44;;;;;;;5.68;3.33;;;;;;;32.63;43.86;99655.97;6350318;28;20126;-73
2023/07/05 14:21:48;;;;;;;6.20;3.53;;;;;;;32.71;41.66;99657.44;6332456;28;20115;-74
2023/07/05 14:24:50;;;;;;;4.97;3.53;;;;;;;32.75;40.44;99652.38;6332137;28;20518;-73